Time;durP1;ratioP1;P1;durP2;ratioP2;P2;SDS_P1;SDS_P2;PMS_P1;PMS_P2;Temp;Humidity;BMP_temperature;BMP_pressure;BME280_temperature;BME280_humidity;BME280_pressure;Samples;Min_cycle;Max_cycle;Signal;HPM_P1;HPM_P2
2023/06/23 00:02:05;;;;;;;215.15;204.52;;;;;;;;;;5035850;28;20044;-66
2023/06/23 00:04:30;;;;;;;190.77;181.43;;;;;;;;;;5037413;28;20116;-66
2023/06/23 00:06:55;;;;;;;179.63;170.73;;;;;;;;;;5036865;28;20155;-66
2023/06/23 00:09:22;;;;;;;166.02;157.85;;;;;;;;;;5036867;28;20122;-66
2023/06/23 00:11:47;;;;;;;138.60;131.63;;;;;;;;;;5033475;28;20060;-66
2023/06/23 00:14:13;;;;;;;140.50;133.55;;;;;;;;;;5034546;28;20079;-64
2023/06/23 00:16:39;;;;;;;134.93;128.00;;;;;;;;;;5034645;28;20087;-66
2023/06/23 00:19:06;;;;;;;153.07;145.40;;;;;;;;;;5036501;28;20037;-69
2023/06/23 00:21:32;;;;;;;114.75;109.00;;;;;;;;;;5034368;28;20733;-67
2023/06/23 00:23:57;;;;;;;90.13;85.38;;;;;;;;;;5033705;28;20033;-68
2023/06/23 00:26:25;;;;;;;98.82;93.85;;;;;;;;;;5035746;28;20120;-68
2023/06/23 00:28:51;;;;;;;77.97;73.95;;;;;;;;;;5035322;28;20037;-68
2023/06/23 00:31:17;;;;;;;80.55;76.40;;;;;;;;;;5034464;28;20025;-66
2023/06/23 00:33:42;;;;;;;68.72;65.28;;;;;;;;;;5034469;28;20029;-68
2023/06/23 00:36:08;;;;;;;71.05;67.50;;;;;;;;;;5034032;28;20502;-68
2023/06/23 00:38:34;;;;;;;64.88;61.53;;;;;;;;;;5033389;28;20021;-68
2023/06/23 00:41:00;;;;;;;77.78;73.72;;;;;;;;;;5034832;28;20079;-67
2023/06/23 00:43:25;;;;;;;46.97;44.58;;;;;;;;;;5034263;28;20056;-67
2023/06/23 00:45:51;;;;;;;63.90;60.65;;;;;;;;;;5035409;28;20037;-67
2023/06/23 00:48:16;;;;;;;49.47;46.97;;;;;;;;;;5036587;28;20403;-67
2023/06/23 00:50:42;;;;;;;54.25;51.47;;;;;;;;;;5032528;28;20033;-67
2023/06/23 00:53:08;;;;;;;53.45;50.70;;;;;;;;;;5032769;28;20505;-67
2023/06/23 00:55:37;;;;;;;51.08;48.45;;;;;;;;;;5037520;28;20131;-66
2023/06/23 00:58:05;;;;;;;45.90;43.50;;;;;;;;;;5033235;28;20025;-67
2023/06/23 01:00:30;;;;;;;41.97;39.75;;;;;;;;;;5033928;28;20044;-66
2023/06/23 01:03:01;;;;;;;42.17;40.03;;;;;;;;;;5032687;28;20048;-65
2023/06/23 01:05:29;;;;;;;;;;;;;;;;;;5032626;28;20054;-66
2023/06/23 01:08:03;;;;;;;39.10;36.90;;;;;;;;;;5034076;28;19993;-66
2023/06/23 01:10:39;;;;;;;44.17;41.90;;;;;;;;;;5033937;28;20048;-65
2023/06/23 01:13:23;;;;;;;47.38;44.75;;;;;;;;;;5035479;28;20033;-67
2023/06/23 01:15:58;;;;;;;64.70;61.38;;;;;;;;;;5033885;28;20169;-66
2023/06/23 01:19:09;;;;;;;82.28;78.07;;;;;;;;;;5034735;28;20037;-66
2023/06/23 01:21:52;;;;;;;82.60;78.40;;;;;;;;;;5023011;28;20076;-66
2023/06/23 01:24:50;;;;;;;93.05;88.28;;;;;;;;;;5034084;28;20069;-64
2023/06/23 01:27:28;;;;;;;81.13;76.97;;;;;;;;;;5033719;28;20038;-64
2023/06/23 01:29:55;;;;;;;79.45;75.40;;;;;;;;;;5036521;28;20529;-65
2023/06/23 01:32:34;;;;;;;80.72;76.68;;;;;;;;;;5031800;28;20044;-65
2023/06/23 01:35:08;;;;;;;67.90;64.47;;;;;;;;;;5040885;28;20029;-65
2023/06/23 01:37:36;;;;;;;47.75;45.35;;;;;;;;;;5038919;28;20463;-65
2023/06/23 01:40:12;;;;;;;58.80;55.75;;;;;;;;;;5032443;28;20132;-64
2023/06/23 01:42:50;;;;;;;69.18;65.63;;;;;;;;;;5035079;28;20028;-65
2023/06/23 01:45:17;;;;;;;69.72;65.82;;;;;;;;;;5033307;28;20041;-64
2023/06/23 01:47:48;;;;;;;62.92;59.72;;;;;;;;;;5035126;28;20037;-64
2023/06/23 01:50:16;;;;;;;60.33;57.28;;;;;;;;;;5033848;28;20120;-65
2023/06/23 01:52:43;;;;;;;53.28;50.53;;;;;;;;;;5036364;28;20491;-65
2023/06/23 01:55:09;;;;;;;54.85;51.83;;;;;;;;;;5036176;28;20056;-64
2023/06/23 01:57:37;;;;;;;54.85;51.92;;;;;;;;;;5034341;28;20044;-66
2023/06/23 02:00:13;;;;;;;48.00;45.50;;;;;;;;;;5035872;28;20060;-65
2023/06/23 02:02:44;;;;;;;44.35;42.03;;;;;;;;;;5034114;28;20048;-66
2023/06/23 02:05:11;;;;;;;43.58;41.25;;;;;;;;;;5034067;28;20099;-66
2023/06/23 02:07:40;;;;;;;40.85;38.75;;;;;;;;;;5035092;28;20539;-64
2023/06/23 02:10:07;;;;;;;44.15;41.88;;;;;;;;;;5032529;28;20053;-63
2023/06/23 02:12:35;;;;;;;48.92;46.38;;;;;;;;;;5033994;28;20055;-63
2023/06/23 02:15:03;;;;;;;41.13;39.00;;;;;;;;;;5036123;28;20039;-63
2023/06/23 02:17:29;;;;;;;41.47;39.35;;;;;;;;;;5034150;28;20037;-63
2023/06/23 02:19:56;;;;;;;38.47;36.50;;;;;;;;;;5035078;28;20021;-65
2023/06/23 02:22:24;;;;;;;35.22;33.40;;;;;;;;;;5034235;28;20377;-64
2023/06/23 02:24:50;;;;;;;31.48;29.83;;;;;;;;;;5033135;28;20116;-66
2023/06/23 02:27:18;;;;;;;26.35;24.92;;;;;;;;;;5033807;28;20037;-65
2023/06/23 02:29:44;;;;;;;28.55;27.05;;;;;;;;;;5034489;28;20414;-65
2023/06/23 02:32:16;;;;;;;34.33;32.53;;;;;;;;;;5033803;28;20068;-64
2023/06/23 02:34:45;;;;;;;26.48;25.00;;;;;;;;;;5032841;28;20034;-65
2023/06/23 02:37:11;;;;;;;27.80;26.30;;;;;;;;;;5031141;28;20036;-65
2023/06/23 02:39:42;;;;;;;34.67;32.83;;;;;;;;;;5031285;28;20175;-65
2023/06/23 02:42:12;;;;;;;34.17;32.40;;;;;;;;;;5032624;28;20143;-64
2023/06/23 02:44:42;;;;;;;31.95;30.27;;;;;;;;;;5033602;28;20033;-64
2023/06/23 02:47:13;;;;;;;30.90;29.27;;;;;;;;;;5034430;28;20040;-64
2023/06/23 02:49:39;;;;;;;23.50;22.20;;;;;;;;;;5034897;28;20029;-65
2023/06/23 02:52:06;;;;;;;25.95;24.58;;;;;;;;;;5031805;28;20471;-65
2023/06/23 02:54:37;;;;;;;30.88;29.25;;;;;;;;;;5032265;28;20039;-64
2023/06/23 02:57:03;;;;;;;;;;;;;;;;;;5033458;28;20094;-64
2023/06/23 02:59:31;;;;;;;31.98;30.33;;;;;;;;;;5033061;28;20412;-64
2023/06/23 03:01:58;;;;;;;37.85;35.75;;;;;;;;;;5032690;28;20036;-65
2023/06/23 03:04:23;;;;;;;38.88;36.78;;;;;;;;;;5032108;28;20044;-64
2023/06/23 03:06:49;;;;;;;27.52;25.98;;;;;;;;;;5030575;28;20022;-65
2023/06/23 03:09:15;;;;;;;25.10;23.75;;;;;;;;;;5034804;28;20042;-65
2023/06/23 03:11:40;;;;;;;28.55;26.95;;;;;;;;;;5035024;28;20029;-64
2023/06/23 03:14:06;;;;;;;27.77;26.27;;;;;;;;;;5031973;28;20037;-65
2023/06/23 03:16:39;;;;;;;22.83;21.63;;;;;;;;;;5033173;28;20036;-64
2023/06/23 03:19:33;;;;;;;27.40;25.90;;;;;;;;;;5033086;28;20071;-64
2023/06/23 03:22:06;;;;;;;28.42;26.88;;;;;;;;;;5034604;28;20250;-65
2023/06/23 03:24:37;;;;;;;32.67;30.92;;;;;;;;;;5036957;28;20120;-66
2023/06/23 03:27:06;;;;;;;28.15;26.67;;;;;;;;;;5039344;28;20862;-64
2023/06/23 03:29:34;;;;;;;26.30;24.88;;;;;;;;;;5037282;28;20590;-66
2023/06/23 03:32:04;;;;;;;31.23;29.58;;;;;;;;;;5035844;28;20889;-65
2023/06/23 03:34:39;;;;;;;30.48;28.60;;;;;;;;;;5035349;28;20041;-66
2023/06/23 03:37:07;;;;;;;36.13;34.22;;;;;;;;;;5040066;28;20536;-66
2023/06/23 03:39:37;;;;;;;32.20;30.52;;;;;;;;;;5036546;28;20116;-65
2023/06/23 03:42:03;;;;;;;35.25;33.40;;;;;;;;;;5034841;28;20102;-65
2023/06/23 03:44:42;;;;;;;40.45;38.33;;;;;;;;;;5039695;28;20044;-66
2023/06/23 03:47:20;;;;;;;32.20;30.48;;;;;;;;;;5039474;28;20067;-64
2023/06/23 03:49:51;;;;;;;31.52;29.90;;;;;;;;;;5037909;28;20124;-64
2023/06/23 03:52:18;;;;;;;32.63;30.88;;;;;;;;;;5036596;28;20044;-64
2023/06/23 03:54:48;;;;;;;36.58;34.40;;;;;;;;;;5040771;28;20055;-65
2023/06/23 03:57:18;;;;;;;28.75;27.15;;;;;;;;;;5036665;28;20549;-63
2023/06/23 03:59:44;;;;;;;;;;;;;;;;;;5041935;28;20068;-64
2023/06/23 04:02:12;;;;;;;26.27;24.88;;;;;;;;;;5035100;28;19953;-63
2023/06/23 04:04:41;;;;;;;26.15;24.70;;;;;;;;;;5035161;28;20040;-64
2023/06/23 04:07:08;;;;;;;30.17;28.55;;;;;;;;;;5034789;28;20053;-64
2023/06/23 04:09:35;;;;;;;40.13;37.75;;;;;;;;;;5035007;28;20037;-64
2023/06/23 04:12:01;;;;;;;38.70;36.67;;;;;;;;;;5037853;28;20049;-63
2023/06/23 04:14:28;;;;;;;40.92;38.83;;;;;;;;;;5037727;28;20486;-64
2023/06/23 04:16:54;;;;;;;57.22;54.28;;;;;;;;;;5035279;28;20071;-64
2023/06/23 04:19:27;;;;;;;78.07;74.13;;;;;;;;;;5037935;28;20041;-64
2023/06/23 04:21:54;;;;;;;87.53;83.07;;;;;;;;;;5034074;28;20037;-64
2023/06/23 04:24:22;;;;;;;114.90;109.10;;;;;;;;;;5032514;28;20029;-65
2023/06/23 04:26:52;;;;;;;130.45;123.85;;;;;;;;;;5038098;28;20034;-65
2023/06/23 04:29:19;;;;;;;104.40;99.13;;;;;;;;;;5034304;28;20494;-64
2023/06/23 04:31:47;;;;;;;132.55;125.85;;;;;;;;;;5036141;28;20036;-65
2023/06/23 04:34:12;;;;;;;114.25;108.47;;;;;;;;;;5034792;28;20120;-66
2023/06/23 04:36:48;;;;;;;94.85;90.07;;;;;;;;;;5037420;28;20106;-64
2023/06/23 04:39:37;;;;;;;91.88;87.22;;;;;;;;;;5035173;28;20040;-63
2023/06/23 04:42:09;;;;;;;78.20;74.25;;;;;;;;;;5034470;28;20475;-63
2023/06/23 04:44:42;;;;;;;61.15;58.05;;;;;;;;;;5031472;28;20370;-64
2023/06/23 04:47:10;;;;;;;63.78;60.55;;;;;;;;;;5034942;28;20029;-64
2023/06/23 04:49:39;;;;;;;65.18;61.83;;;;;;;;;;5034338;28;20040;-64
2023/06/23 04:52:07;;;;;;;65.30;61.97;;;;;;;;;;5034481;28;20113;-64
2023/06/23 04:54:41;;;;;;;83.88;79.63;;;;;;;;;;5033025;28;20037;-65
2023/06/23 04:57:13;;;;;;;75.65;71.72;;;;;;;;;;5034710;28;20032;-63
2023/06/23 04:59:41;;;;;;;63.75;60.47;;;;;;;;;;5034901;28;20040;-64
2023/06/23 05:02:10;;;;;;;62.00;58.85;;;;;;;;;;5033771;28;20093;-64
2023/06/23 05:04:38;;;;;;;73.85;69.95;;;;;;;;;;5038640;28;20028;-63
2023/06/23 05:07:04;;;;;;;57.17;54.28;;;;;;;;;;5043004;28;20041;-64
2023/06/23 05:09:33;;;;;;;79.75;75.65;;;;;;;;;;5040217;28;20085;-64
2023/06/23 05:12:00;;;;;;;58.85;55.85;;;;;;;;;;5036956;28;20517;-65
2023/06/23 05:14:27;;;;;;;71.28;67.65;;;;;;;;;;5032225;28;20049;-64
2023/06/23 05:16:57;;;;;;;102.18;96.75;;;;;;;;;;5037747;28;20668;-63
2023/06/23 05:19:25;;;;;;;85.32;81.00;;;;;;;;;;5035348;28;20033;-64
2023/06/23 05:21:52;;;;;;;61.10;58.00;;;;;;;;;;5034966;28;20425;-64
2023/06/23 05:24:19;;;;;;;49.47;46.83;;;;;;;;;;5034907;28;21376;-65
2023/06/23 05:26:45;;;;;;;41.22;39.08;;;;;;;;;;5033771;28;20041;-63
2023/06/23 05:29:16;;;;;;;52.40;49.72;;;;;;;;;;5034376;28;20110;-65
2023/06/23 05:31:43;;;;;;;45.80;43.42;;;;;;;;;;5035755;28;20120;-62
2023/06/23 05:34:12;;;;;;;63.80;60.58;;;;;;;;;;5035067;28;20554;-61
2023/06/23 05:36:38;;;;;;;48.60;46.10;;;;;;;;;;5034351;28;20033;-65
2023/06/23 05:39:06;;;;;;;37.22;35.30;;;;;;;;;;5036058;28;20037;-66
2023/06/23 05:41:32;;;;;;;35.95;34.10;;;;;;;;;;5033235;28;20045;-62
2023/06/23 05:43:58;;;;;;;37.85;35.80;;;;;;;;;;5035076;28;20036;-62
2023/06/23 05:46:25;;;;;;;40.60;38.50;;;;;;;;;;5030794;28;20532;-62
2023/06/23 05:48:53;;;;;;;34.78;32.97;;;;;;;;;;5032424;28;20041;-62
2023/06/23 05:51:25;;;;;;;30.50;28.80;;;;;;;;;;5032085;28;20044;-62
2023/06/23 05:53:54;;;;;;;34.60;32.80;;;;;;;;;;5033016;28;20033;-63
2023/06/23 05:56:28;;;;;;;33.10;31.10;;;;;;;;;;5035698;28;20041;-63
2023/06/23 05:58:56;;;;;;;34.97;33.15;;;;;;;;;;5033062;28;20033;-63
2023/06/23 06:01:24;;;;;;;39.13;37.08;;;;;;;;;;5031545;28;20153;-62
2023/06/23 06:04:01;;;;;;;24.90;23.58;;;;;;;;;;5035847;28;20033;-63
2023/06/23 06:06:28;;;;;;;29.90;28.27;;;;;;;;;;5030792;28;20156;-63
2023/06/23 06:08:57;;;;;;;29.85;28.27;;;;;;;;;;5033793;28;20045;-63
2023/06/23 06:11:25;;;;;;;28.67;27.10;;;;;;;;;;5031988;28;20037;-63
2023/06/23 06:13:51;;;;;;;33.08;31.27;;;;;;;;;;5031496;28;20041;-63
2023/06/23 06:16:18;;;;;;;20.52;19.42;;;;;;;;;;5032936;28;20037;-62
2023/06/23 06:18:46;;;;;;;28.38;26.83;;;;;;;;;;5030722;28;20120;-62
2023/06/23 06:21:14;;;;;;;17.75;16.75;;;;;;;;;;5030275;28;20102;-63
2023/06/23 06:23:40;;;;;;;18.10;17.08;;;;;;;;;;5031065;28;20042;-63
2023/06/23 06:26:07;;;;;;;23.95;22.65;;;;;;;;;;5032215;28;20041;-64
2023/06/23 06:28:34;;;;;;;27.60;26.10;;;;;;;;;;5028972;28;20466;-62
2023/06/23 06:31:01;;;;;;;34.58;32.78;;;;;;;;;;5031997;28;20124;-62
2023/06/23 06:33:28;;;;;;;34.47;32.67;;;;;;;;;;5035293;28;20128;-63
2023/06/23 06:35:57;;;;;;;30.13;28.55;;;;;;;;;;5032828;28;20037;-61
2023/06/23 06:38:23;;;;;;;33.10;31.30;;;;;;;;;;5030561;28;20118;-61
2023/06/23 06:40:52;;;;;;;43.63;41.38;;;;;;;;;;5035143;28;20421;-62
2023/06/23 06:43:18;;;;;;;42.72;40.53;;;;;;;;;;5034550;28;20455;-65
2023/06/23 06:45:45;;;;;;;39.53;37.40;;;;;;;;;;5036888;28;20091;-61
2023/06/23 06:48:12;;;;;;;40.10;38.00;;;;;;;;;;5032874;28;20132;-62
2023/06/23 06:50:38;;;;;;;39.20;37.10;;;;;;;;;;5032328;28;20545;-62
2023/06/23 06:53:04;;;;;;;36.85;34.92;;;;;;;;;;5033173;28;20048;-64
2023/06/23 06:55:31;;;;;;;40.92;38.78;;;;;;;;;;5033189;28;20037;-62
2023/06/23 06:57:57;;;;;;;37.40;35.42;;;;;;;;;;5032134;28;20502;-59
2023/06/23 07:00:22;;;;;;;41.65;39.45;;;;;;;;;;5032242;28;20497;-63
2023/06/23 07:02:48;;;;;;;41.60;39.40;;;;;;;;;;5032551;28;20033;-62
2023/06/23 07:05:13;;;;;;;39.30;37.25;;;;;;;;;;5032967;28;20365;-62
2023/06/23 07:07:39;;;;;;;39.50;37.47;;;;;;;;;;5030797;28;20396;-61
2023/06/23 07:10:05;;;;;;;40.08;37.97;;;;;;;;;;5031973;28;20477;-61
2023/06/23 07:12:31;;;;;;;43.33;41.08;;;;;;;;;;5032095;28;20415;-61
2023/06/23 07:14:57;;;;;;;38.42;36.45;;;;;;;;;;5031443;28;20367;-62
2023/06/23 07:17:22;;;;;;;30.60;28.92;;;;;;;;;;5030691;28;20048;-62
2023/06/23 07:19:48;;;;;;;50.63;48.08;;;;;;;;;;5029524;28;20043;-63
2023/06/23 07:22:13;;;;;;;53.00;50.20;;;;;;;;;;5035939;28;20045;-62
2023/06/23 07:24:38;;;;;;;41.10;39.00;;;;;;;;;;5031259;28;20109;-63
2023/06/23 07:27:05;;;;;;;30.50;28.88;;;;;;;;;;5036684;28;20700;-64
2023/06/23 07:29:30;;;;;;;44.25;41.95;;;;;;;;;;5034968;28;20503;-63
2023/06/23 07:31:57;;;;;;;44.45;42.20;;;;;;;;;;5034539;28;20120;-63
2023/06/23 07:34:22;;;;;;;47.55;45.10;;;;;;;;;;5030567;28;20068;-64
2023/06/23 07:36:47;;;;;;;39.80;37.42;;;;;;;;;;5033387;28;20442;-63
2023/06/23 07:39:13;;;;;;;55.78;52.67;;;;;;;;;;5032755;28;20486;-64
2023/06/23 07:41:38;;;;;;;37.80;35.85;;;;;;;;;;5029816;28;20048;-64
2023/06/23 07:44:04;;;;;;;33.78;31.88;;;;;;;;;;5032127;28;20041;-62
2023/06/23 07:46:34;;;;;;;47.70;44.97;;;;;;;;;;5029051;28;20021;-65
2023/06/23 07:48:59;;;;;;;52.80;50.13;;;;;;;;;;5031419;28;20033;-63
2023/06/23 07:51:24;;;;;;;53.22;50.50;;;;;;;;;;5028577;28;20037;-64
2023/06/23 07:53:50;;;;;;;76.30;72.45;;;;;;;;;;5029178;28;20036;-62
2023/06/23 07:56:15;;;;;;;103.97;98.68;;;;;;;;;;5029800;28;20502;-62
2023/06/23 07:58:40;;;;;;;73.45;69.80;;;;;;;;;;5029805;28;20581;-64
2023/06/23 08:01:06;;;;;;;108.15;102.75;;;;;;;;;;5032964;28;20041;-62
2023/06/23 08:03:32;;;;;;;116.20;110.45;;;;;;;;;;5029398;28;20489;-64
2023/06/23 08:05:58;;;;;;;107.10;101.78;;;;;;;;;;5033758;28;20699;-64
2023/06/23 08:08:24;;;;;;;115.40;109.70;;;;;;;;;;5032512;28;20041;-62
2023/06/23 08:10:49;;;;;;;94.30;89.63;;;;;;;;;;5032189;28;20040;-63
2023/06/23 08:13:14;;;;;;;115.78;110.05;;;;;;;;;;5034443;28;20106;-63
2023/06/23 08:15:41;;;;;;;109.18;103.78;;;;;;;;;;5037844;28;20400;-63
2023/06/23 08:18:06;;;;;;;111.70;106.20;;;;;;;;;;5033677;28;20051;-62
2023/06/23 08:20:32;;;;;;;112.50;107.03;;;;;;;;;;5034751;28;20379;-62
2023/06/23 08:22:57;;;;;;;100.10;95.20;;;;;;;;;;5034583;28;20038;-64
2023/06/23 08:25:22;;;;;;;64.72;61.47;;;;;;;;;;5036152;28;20032;-64
2023/06/23 08:27:48;;;;;;;112.93;107.32;;;;;;;;;;5037375;28;20048;-64
2023/06/23 08:30:14;;;;;;;119.05;113.20;;;;;;;;;;5035217;28;20108;-64
2023/06/23 08:32:40;;;;;;;119.97;114.03;;;;;;;;;;5027248;28;20889;-64
2023/06/23 08:35:05;;;;;;;124.20;118.13;;;;;;;;;;5037628;28;20045;-64
2023/06/23 08:37:31;;;;;;;114.32;108.72;;;;;;;;;;5034091;28;20072;-64
2023/06/23 08:39:56;;;;;;;114.55;108.90;;;;;;;;;;5036352;28;20048;-63
2023/06/23 08:42:21;;;;;;;89.60;85.15;;;;;;;;;;5034893;28;20056;-64
2023/06/23 08:44:48;;;;;;;92.57;87.10;;;;;;;;;;5034555;28;20037;-62
2023/06/23 08:47:18;;;;;;;60.15;56.88;;;;;;;;;;5036559;28;20083;-62
2023/06/23 08:49:46;;;;;;;75.80;72.00;;;;;;;;;;5034832;28;20055;-63
2023/06/23 08:52:12;;;;;;;71.22;67.63;;;;;;;;;;5033994;28;20037;-63
2023/06/23 08:54:38;;;;;;;60.90;57.80;;;;;;;;;;5032840;28;20037;-63
2023/06/23 08:57:04;;;;;;;67.35;63.85;;;;;;;;;;5031250;28;20041;-63
2023/06/23 08:59:30;;;;;;;49.03;46.53;;;;;;;;;;5032839;28;20043;-61
2023/06/23 09:01:56;;;;;;;56.55;53.72;;;;;;;;;;5031579;28;20471;-65
2023/06/23 09:04:21;;;;;;;58.10;55.15;;;;;;;;;;5035949;28;20081;-61
2023/06/23 09:06:47;;;;;;;49.90;47.33;;;;;;;;;;5033825;28;20048;-63
2023/06/23 09:09:12;;;;;;;49.72;47.17;;;;;;;;;;5031928;28;20037;-64
2023/06/23 09:11:38;;;;;;;78.82;74.80;;;;;;;;;;5032183;28;20037;-63
2023/06/23 09:14:06;;;;;;;74.32;70.40;;;;;;;;;;5035431;28;20033;-64
2023/06/23 09:16:32;;;;;;;62.53;59.17;;;;;;;;;;5036214;28;20079;-63
2023/06/23 09:19:00;;;;;;;86.95;82.63;;;;;;;;;;5031928;28;20108;-63
2023/06/23 09:21:25;;;;;;;80.75;76.78;;;;;;;;;;5034995;28;20052;-64
2023/06/23 09:24:03;;;;;;;52.10;49.45;;;;;;;;;;5033328;28;20522;-64
2023/06/23 09:26:30;;;;;;;67.07;63.67;;;;;;;;;;5036342;28;20041;-64
2023/06/23 09:29:14;;;;;;;42.55;40.35;;;;;;;;;;5032514;28;20048;-64
2023/06/23 09:31:40;;;;;;;69.80;66.30;;;;;;;;;;5031021;28;20036;-63
2023/06/23 09:34:06;;;;;;;103.00;97.88;;;;;;;;;;5039557;28;20367;-63
2023/06/23 09:36:36;;;;;;;54.47;51.70;;;;;;;;;;5038659;28;20028;-64
2023/06/23 09:39:03;;;;;;;53.03;50.33;;;;;;;;;;5038053;28;20041;-64
2023/06/23 09:41:33;;;;;;;107.57;102.20;;;;;;;;;;5035697;28;20079;-64
2023/06/23 09:43:59;;;;;;;74.50;70.80;;;;;;;;;;5034949;28;20052;-64
2023/06/23 09:46:27;;;;;;;129.23;122.80;;;;;;;;;;5041124;28;20306;-64
2023/06/23 09:48:52;;;;;;;141.65;134.60;;;;;;;;;;5034325;28;20045;-65
2023/06/23 09:51:20;;;;;;;142.95;135.77;;;;;;;;;;5033242;28;20047;-64
2023/06/23 09:53:48;;;;;;;122.15;116.10;;;;;;;;;;5035301;28;20514;-65
2023/06/23 09:56:21;;;;;;;161.75;153.60;;;;;;;;;;5036217;28;20120;-64
2023/06/23 09:58:47;;;;;;;127.95;121.60;;;;;;;;;;5032727;28;20033;-60
2023/06/23 10:01:15;;;;;;;65.93;62.58;;;;;;;;;;5030558;28;20033;-61
2023/06/23 10:03:57;;;;;;;74.05;70.13;;;;;;;;;;5031993;28;20029;-60
2023/06/23 10:06:25;;;;;;;85.53;81.28;;;;;;;;;;5034506;28;20645;-60
2023/06/23 10:08:55;;;;;;;38.83;36.50;;;;;;;;;;5034275;28;20061;-60
2023/06/23 10:11:32;;;;;;;43.88;41.55;;;;;;;;;;5031489;28;20037;-60
2023/06/23 10:14:01;;;;;;;107.55;102.25;;;;;;;;;;5034517;28;20109;-60
2023/06/23 10:16:28;;;;;;;26.90;25.43;;;;;;;;;;5032835;28;20026;-59
2023/06/23 10:18:54;;;;;;;63.53;60.22;;;;;;;;;;5035373;28;20275;-59
2023/06/23 10:21:20;;;;;;;40.53;38.15;;;;;;;;;;5032348;28;20048;-59
2023/06/23 10:23:48;;;;;;;69.30;65.75;;;;;;;;;;5032493;28;20104;-59
2023/06/23 10:26:13;;;;;;;57.40;54.45;;;;;;;;;;5032531;28;20402;-59
2023/06/23 10:28:43;;;;;;;25.27;23.65;;;;;;;;;;5035415;28;20037;-59
2023/06/23 10:31:08;;;;;;;33.70;32.00;;;;;;;;;;5032679;28;20041;-60
2023/06/23 10:33:36;;;;;;;25.38;23.58;;;;;;;;;;5032957;28;20344;-60
2023/06/23 10:36:06;;;;;;;18.20;17.15;;;;;;;;;;5032925;28;20041;-59
2023/06/23 10:38:32;;;;;;;144.05;136.82;;;;;;;;;;5034945;28;20112;-62
2023/06/23 10:41:00;;;;;;;38.65;36.65;;;;;;;;;;5033337;28;20384;-60
2023/06/23 10:43:30;;;;;;;44.58;42.30;;;;;;;;;;5032240;28;20332;-59
2023/06/23 10:45:56;;;;;;;20.50;19.30;;;;;;;;;;5030214;28;20081;-59
2023/06/23 10:48:23;;;;;;;21.08;19.88;;;;;;;;;;5032661;28;20040;-59
2023/06/23 10:50:49;;;;;;;20.17;19.08;;;;;;;;;;5032049;28;20033;-64
2023/06/23 10:53:16;;;;;;;16.33;15.43;;;;;;;;;;5031231;28;20083;-66
2023/06/23 10:55:46;;;;;;;15.65;14.75;;;;;;;;;;5030403;28;20055;-64
2023/06/23 10:58:16;;;;;;;78.93;74.90;;;;;;;;;;5029175;28;20037;-64
2023/06/23 11:01:00;;;;;;;;;;;;;;;;;;5028923;28;20115;-59
2023/06/23 11:03:36;;;;;;;89.00;84.60;;;;;;;;;;5033304;28;19913;-59
2023/06/23 11:06:07;;;;;;;57.63;54.72;;;;;;;;;;5029852;28;20387;-60
2023/06/23 11:08:37;;;;;;;29.00;27.45;;;;;;;;;;5032724;28;20058;-59
2023/06/23 11:11:03;;;;;;;16.90;15.90;;;;;;;;;;5031871;28;20116;-59
2023/06/23 11:13:37;;;;;;;18.80;17.80;;;;;;;;;;5033700;28;20129;-59
2023/06/23 11:16:05;;;;;;;17.83;16.80;;;;;;;;;;5032418;28;20037;-59
2023/06/23 11:18:30;;;;;;;28.40;26.90;;;;;;;;;;5039879;28;20056;-60
2023/06/23 11:21:15;;;;;;;50.63;48.00;;;;;;;;;;5036195;28;20067;-59
2023/06/23 11:24:15;;;;;;;91.97;87.38;;;;;;;;;;5033069;28;20115;-59
2023/06/23 11:26:44;;;;;;;200.60;190.82;;;;;;;;;;5032380;28;20041;-59
2023/06/23 11:29:11;;;;;;;199.15;189.50;;;;;;;;;;5033942;28;20132;-59
2023/06/23 11:32:04;;;;;;;145.10;137.98;;;;;;;;;;5031491;28;20044;-60
2023/06/23 11:34:30;;;;;;;164.88;156.77;;;;;;;;;;5033022;28;20052;-59
2023/06/23 11:36:57;;;;;;;141.15;134.23;;;;;;;;;;5030899;28;20029;-59
2023/06/23 11:39:22;;;;;;;147.88;140.18;;;;;;;;;;5034364;28;20041;-59
2023/06/23 11:41:48;;;;;;;82.82;78.47;;;;;;;;;;5030174;28;20037;-60
2023/06/23 11:44:14;;;;;;;64.78;61.47;;;;;;;;;;5035450;28;20030;-60
2023/06/23 11:46:39;;;;;;;92.13;87.55;;;;;;;;;;5034374;28;20467;-59
2023/06/23 11:49:12;;;;;;;41.80;39.50;;;;;;;;;;5035939;28;20045;-59
2023/06/23 11:51:38;;;;;;;48.83;46.30;;;;;;;;;;5036195;28;20604;-59
2023/06/23 11:54:06;;;;;;;78.15;74.25;;;;;;;;;;5035028;28;20066;-59
2023/06/23 11:56:32;;;;;;;147.45;140.20;;;;;;;;;;5035248;28;20033;-58
2023/06/23 11:59:02;;;;;;;160.93;152.98;;;;;;;;;;5033929;28;20065;-59
2023/06/23 12:01:27;;;;;;;193.80;184.30;;;;;;;;;;5035435;28;20032;-59
2023/06/23 12:03:53;;;;;;;203.65;193.77;;;;;;;;;;5037394;28;20063;-59
2023/06/23 12:06:19;;;;;;;195.00;185.45;;;;;;;;;;5036504;28;20033;-59
2023/06/23 12:08:51;;;;;;;73.43;69.75;;;;;;;;;;5036660;28;20040;-59
2023/06/23 12:11:17;;;;;;;41.10;38.83;;;;;;;;;;5033851;28;20436;-60
2023/06/23 12:13:45;;;;;;;97.25;92.45;;;;;;;;;;5032829;28;20033;-59
2023/06/23 12:16:11;;;;;;;210.32;200.13;;;;;;;;;;5032818;28;20056;-59
2023/06/23 12:18:48;;;;;;;36.40;34.50;;;;;;;;;;5035233;28;20038;-59
2023/06/23 12:21:14;;;;;;;50.50;47.88;;;;;;;;;;5036408;28;20095;-59
2023/06/23 12:23:41;;;;;;;228.13;217.05;;;;;;;;;;5036317;28;20044;-59
2023/06/23 12:26:08;;;;;;;42.92;40.67;;;;;;;;;;5034138;28;20036;-60
2023/06/23 12:28:33;;;;;;;23.77;22.48;;;;;;;;;;5036663;28;20509;-60
2023/06/23 12:30:59;;;;;;;28.75;27.25;;;;;;;;;;5033934;28;20061;-59
2023/06/23 12:33:27;;;;;;;27.27;25.83;;;;;;;;;;5037178;28;20129;-60
2023/06/23 12:36:00;;;;;;;32.25;30.58;;;;;;;;;;5033699;28;20346;-59
2023/06/23 12:38:26;;;;;;;39.83;37.83;;;;;;;;;;5035631;28;20118;-60
2023/06/23 12:40:52;;;;;;;39.60;37.50;;;;;;;;;;5034148;28;20044;-60
2023/06/23 12:43:19;;;;;;;25.17;23.83;;;;;;;;;;5035432;28;20040;-59
2023/06/23 12:45:53;;;;;;;99.25;94.35;;;;;;;;;;5033972;28;20362;-60
2023/06/23 12:48:22;;;;;;;74.65;70.93;;;;;;;;;;5035702;28;20063;-60
2023/06/23 12:50:52;;;;;;;48.97;46.50;;;;;;;;;;5038140;28;20395;-61
2023/06/23 12:53:18;;;;;;;32.28;30.58;;;;;;;;;;5035704;28;20041;-59
2023/06/23 12:55:44;;;;;;;43.60;41.30;;;;;;;;;;5034895;28;20044;-60
2023/06/23 12:58:10;;;;;;;22.10;20.88;;;;;;;;;;5035521;28;20099;-59
2023/06/23 13:00:36;;;;;;;45.25;42.95;;;;;;;;;;5035358;28;20045;-60
2023/06/23 13:03:02;;;;;;;21.58;20.40;;;;;;;;;;5035346;28;20041;-59
2023/06/23 13:05:28;;;;;;;22.75;21.55;;;;;;;;;;5036186;28;20104;-59
2023/06/23 13:07:54;;;;;;;17.42;16.42;;;;;;;;;;5035637;28;20557;-59
2023/06/23 13:10:19;;;;;;;51.80;49.10;;;;;;;;;;5033912;28;20201;-59
2023/06/23 13:12:45;;;;;;;17.88;16.85;;;;;;;;;;5035585;28;20053;-59
2023/06/23 13:15:10;;;;;;;18.02;17.02;;;;;;;;;;5035435;28;20119;-59
2023/06/23 13:17:35;;;;;;;60.08;57.05;;;;;;;;;;5035288;28;20463;-59
2023/06/23 13:20:03;;;;;;;89.80;85.38;;;;;;;;;;5034526;28;20433;-59
2023/06/23 13:22:28;;;;;;;88.63;84.20;;;;;;;;;;5034049;28;20040;-60
2023/06/23 13:24:56;;;;;;;41.72;39.45;;;;;;;;;;5036298;28;20037;-59
2023/06/23 13:27:25;;;;;;;62.30;59.05;;;;;;;;;;5033661;28;20029;-59
2023/06/23 13:29:51;;;;;;;60.47;57.40;;;;;;;;;;5032571;28;20048;-59
2023/06/23 13:32:18;;;;;;;110.05;104.63;;;;;;;;;;5033650;28;20079;-60
2023/06/23 13:34:43;;;;;;;105.43;100.22;;;;;;;;;;5035811;28;20031;-60
2023/06/23 13:37:09;;;;;;;100.03;95.05;;;;;;;;;;5036784;28;20036;-59
2023/06/23 13:39:34;;;;;;;69.53;66.03;;;;;;;;;;5031837;28;20390;-59
2023/06/23 13:42:00;;;;;;;81.22;77.22;;;;;;;;;;5033778;28;20083;-59
2023/06/23 13:44:25;;;;;;;132.30;125.80;;;;;;;;;;5034039;28;20048;-59
2023/06/23 13:46:51;;;;;;;123.90;117.75;;;;;;;;;;5032215;28;20033;-59
2023/06/23 13:49:16;;;;;;;118.18;112.32;;;;;;;;;;5036174;28;20498;-60
2023/06/23 13:51:41;;;;;;;119.45;113.50;;;;;;;;;;5034119;28;20035;-61
2023/06/23 13:54:07;;;;;;;140.00;133.10;;;;;;;;;;5037273;28;20107;-59
2023/06/23 13:56:33;;;;;;;141.38;134.35;;;;;;;;;;5028543;28;20274;-60
2023/06/23 13:58:59;;;;;;;141.73;134.70;;;;;;;;;;5033171;28;20026;-59
2023/06/23 14:01:25;;;;;;;138.32;131.50;;;;;;;;;;5033729;28;20033;-59
2023/06/23 14:03:51;;;;;;;148.63;141.27;;;;;;;;;;5032247;28;20045;-59
2023/06/23 14:06:21;;;;;;;108.90;103.35;;;;;;;;;;5031671;28;20047;-59
2023/06/23 14:08:47;;;;;;;141.40;134.43;;;;;;;;;;5040707;28;20036;-59
2023/06/23 14:11:13;;;;;;;107.15;101.85;;;;;;;;;;5032263;28;20467;-59
2023/06/23 14:13:40;;;;;;;142.10;135.13;;;;;;;;;;5032236;28;20592;-59
2023/06/23 14:16:06;;;;;;;101.70;96.68;;;;;;;;;;5032363;28;20045;-59
2023/06/23 14:18:31;;;;;;;87.80;83.45;;;;;;;;;;5036364;28;20340;-59
2023/06/23 14:20:57;;;;;;;97.70;92.88;;;;;;;;;;5033247;28;20044;-59